sensor_id;sensor_type;location;lat;lon;timestamp;P1;durP1;ratioP1;P2;durP2;ratioP2
66384;SDS011;53426;55.872;37.462;2023-05-10T00:01:42;10.43;;;6.10;;
66384;SDS011;53426;55.872;37.462;2023-05-10T00:04:10;18.40;;;5.97;;
66384;SDS011;53426;55.872;37.462;2023-05-10T00:06:36;12.75;;;6.50;;
66384;SDS011;53426;55.872;37.462;2023-05-10T00:09:02;10.45;;;6.30;;
66384;SDS011;53426;55.872;37.462;2023-05-10T00:11:28;8.05;;;6.22;;
66384;SDS011;53426;55.872;37.462;2023-05-10T00:13:54;12.45;;;6.57;;
66384;SDS011;53426;55.872;37.462;2023-05-10T00:16:20;10.98;;;6.25;;
66384;SDS011;53426;55.872;37.462;2023-05-10T00:18:46;14.82;;;6.47;;
66384;SDS011;53426;55.872;37.462;2023-05-10T00:21:12;10.05;;;6.57;;
66384;SDS011;53426;55.872;37.462;2023-05-10T00:23:39;11.85;;;7.20;;
66384;SDS011;53426;55.872;37.462;2023-05-10T00:26:05;11.80;;;6.38;;
66384;SDS011;53426;55.872;37.462;2023-05-10T00:28:31;16.00;;;6.93;;
66384;SDS011;53426;55.872;37.462;2023-05-10T00:30:57;22.00;;;7.60;;
66384;SDS011;53426;55.872;37.462;2023-05-10T00:33:23;14.10;;;6.95;;
66384;SDS011;53426;55.872;37.462;2023-05-10T00:35:49;21.10;;;7.25;;
66384;SDS011;53426;55.872;37.462;2023-05-10T00:38:18;28.45;;;7.07;;
66384;SDS011;53426;55.872;37.462;2023-05-10T00:40:45;18.25;;;7.20;;
66384;SDS011;53426;55.872;37.462;2023-05-10T00:43:18;16.08;;;7.13;;
66384;SDS011;53426;55.872;37.462;2023-05-10T00:45:46;13.35;;;6.40;;
66384;SDS011;53426;55.872;37.462;2023-05-10T00:48:12;12.40;;;6.85;;
66384;SDS011;53426;55.872;37.462;2023-05-10T00:50:39;14.27;;;6.80;;
66384;SDS011;53426;55.872;37.462;2023-05-10T00:53:05;25.33;;;7.57;;
66384;SDS011;53426;55.872;37.462;2023-05-10T00:55:31;14.68;;;6.90;;
66384;SDS011;53426;55.872;37.462;2023-05-10T00:57:57;9.60;;;6.35;;
66384;SDS011;53426;55.872;37.462;2023-05-10T01:00:23;9.75;;;6.85;;
66384;SDS011;53426;55.872;37.462;2023-05-10T01:02:49;23.45;;;8.00;;
66384;SDS011;53426;55.872;37.462;2023-05-10T01:05:19;27.13;;;6.50;;
66384;SDS011;53426;55.872;37.462;2023-05-10T01:07:45;18.15;;;6.22;;
66384;SDS011;53426;55.872;37.462;2023-05-10T01:10:11;17.40;;;6.45;;
66384;SDS011;53426;55.872;37.462;2023-05-10T01:12:40;24.20;;;6.28;;
66384;SDS011;53426;55.872;37.462;2023-05-10T01:15:08;15.30;;;6.80;;
66384;SDS011;53426;55.872;37.462;2023-05-10T01:17:38;15.88;;;5.80;;
66384;SDS011;53426;55.872;37.462;2023-05-10T01:20:07;12.40;;;6.53;;
66384;SDS011;53426;55.872;37.462;2023-05-10T01:22:50;16.50;;;6.28;;
66384;SDS011;53426;55.872;37.462;2023-05-10T01:36:31;20.45;;;6.78;;
66384;SDS011;53426;55.872;37.462;2023-05-10T01:41:48;17.92;;;7.32;;
66384;SDS011;53426;55.872;37.462;2023-05-10T01:47:10;31.33;;;7.70;;
66384;SDS011;53426;55.872;37.462;2023-05-10T01:49:50;13.60;;;6.88;;
66384;SDS011;53426;55.872;37.462;2023-05-10T01:52:22;13.43;;;6.15;;
66384;SDS011;53426;55.872;37.462;2023-05-10T01:55:28;21.02;;;6.70;;
66384;SDS011;53426;55.872;37.462;2023-05-10T01:57:50;33.70;;;6.95;;
66384;SDS011;53426;55.872;37.462;2023-05-10T02:00:22;28.15;;;7.45;;
66384;SDS011;53426;55.872;37.462;2023-05-10T02:02:50;35.25;;;7.22;;
66384;SDS011;53426;55.872;37.462;2023-05-10T02:05:18;26.30;;;6.95;;
66384;SDS011;53426;55.872;37.462;2023-05-10T02:07:46;19.27;;;7.65;;
66384;SDS011;53426;55.872;37.462;2023-05-10T02:10:13;15.63;;;6.15;;
66384;SDS011;53426;55.872;37.462;2023-05-10T02:12:41;20.13;;;6.70;;
66384;SDS011;53426;55.872;37.462;2023-05-10T02:15:12;22.92;;;7.43;;
66384;SDS011;53426;55.872;37.462;2023-05-10T02:17:43;12.95;;;6.95;;
66384;SDS011;53426;55.872;37.462;2023-05-10T02:20:12;21.50;;;7.63;;
66384;SDS011;53426;55.872;37.462;2023-05-10T02:22:40;12.43;;;6.45;;
66384;SDS011;53426;55.872;37.462;2023-05-10T02:25:08;16.55;;;7.22;;
66384;SDS011;53426;55.872;37.462;2023-05-10T02:27:39;15.63;;;6.38;;
66384;SDS011;53426;55.872;37.462;2023-05-10T02:30:09;10.10;;;6.78;;
66384;SDS011;53426;55.872;37.462;2023-05-10T02:32:36;15.32;;;7.47;;
66384;SDS011;53426;55.872;37.462;2023-05-10T02:35:03;8.88;;;6.10;;
66384;SDS011;53426;55.872;37.462;2023-05-10T02:37:31;16.30;;;6.45;;
66384;SDS011;53426;55.872;37.462;2023-05-10T02:39:58;15.55;;;7.00;;
66384;SDS011;53426;55.872;37.462;2023-05-10T02:42:29;16.38;;;6.95;;
66384;SDS011;53426;55.872;37.462;2023-05-10T02:45:01;24.90;;;6.82;;
66384;SDS011;53426;55.872;37.462;2023-05-10T02:47:33;12.85;;;6.60;;
66384;SDS011;53426;55.872;37.462;2023-05-10T02:50:02;11.00;;;6.40;;
66384;SDS011;53426;55.872;37.462;2023-05-10T02:52:35;17.02;;;7.00;;
66384;SDS011;53426;55.872;37.462;2023-05-10T02:55:05;14.65;;;6.88;;
66384;SDS011;53426;55.872;37.462;2023-05-10T02:57:39;14.63;;;7.00;;
66384;SDS011;53426;55.872;37.462;2023-05-10T03:00:08;17.83;;;7.15;;
66384;SDS011;53426;55.872;37.462;2023-05-10T03:09:12;10.90;;;6.82;;
66384;SDS011;53426;55.872;37.462;2023-05-10T03:17:15;22.85;;;6.97;;
66384;SDS011;53426;55.872;37.462;2023-05-10T03:22:41;18.73;;;7.38;;
66384;SDS011;53426;55.872;37.462;2023-05-10T03:25:12;15.52;;;7.05;;
66384;SDS011;53426;55.872;37.462;2023-05-10T03:27:43;8.90;;;6.45;;
66384;SDS011;53426;55.872;37.462;2023-05-10T03:30:11;20.25;;;6.85;;
66384;SDS011;53426;55.872;37.462;2023-05-10T03:32:38;16.55;;;7.70;;
66384;SDS011;53426;55.872;37.462;2023-05-10T03:35:08;28.95;;;6.82;;
66384;SDS011;53426;55.872;37.462;2023-05-10T03:37:36;20.38;;;6.97;;
66384;SDS011;53426;55.872;37.462;2023-05-10T03:40:02;17.40;;;7.72;;
66384;SDS011;53426;55.872;37.462;2023-05-10T03:42:31;15.32;;;7.45;;
66384;SDS011;53426;55.872;37.462;2023-05-10T03:44:57;17.23;;;7.40;;
66384;SDS011;53426;55.872;37.462;2023-05-10T03:47:26;20.45;;;6.60;;
66384;SDS011;53426;55.872;37.462;2023-05-10T03:49:52;25.38;;;6.95;;
66384;SDS011;53426;55.872;37.462;2023-05-10T03:52:18;22.23;;;7.43;;
66384;SDS011;53426;55.872;37.462;2023-05-10T03:54:44;17.92;;;6.40;;
66384;SDS011;53426;55.872;37.462;2023-05-10T03:57:10;26.20;;;7.97;;
66384;SDS011;53426;55.872;37.462;2023-05-10T03:59:36;27.52;;;7.47;;
66384;SDS011;53426;55.872;37.462;2023-05-10T04:02:02;17.90;;;7.15;;
66384;SDS011;53426;55.872;37.462;2023-05-10T04:04:29;20.23;;;6.93;;
66384;SDS011;53426;55.872;37.462;2023-05-10T04:06:55;24.95;;;7.30;;
66384;SDS011;53426;55.872;37.462;2023-05-10T04:09:21;20.38;;;7.93;;
66384;SDS011;53426;55.872;37.462;2023-05-10T04:11:47;17.80;;;6.75;;
66384;SDS011;53426;55.872;37.462;2023-05-10T04:14:13;15.10;;;7.20;;
66384;SDS011;53426;55.872;37.462;2023-05-10T04:16:39;21.83;;;7.78;;
66384;SDS011;53426;55.872;37.462;2023-05-10T04:19:05;31.27;;;8.43;;
66384;SDS011;53426;55.872;37.462;2023-05-10T04:21:31;24.58;;;7.60;;
66384;SDS011;53426;55.872;37.462;2023-05-10T04:24:00;11.75;;;7.10;;
66384;SDS011;53426;55.872;37.462;2023-05-10T04:26:26;24.33;;;7.43;;
66384;SDS011;53426;55.872;37.462;2023-05-10T04:28:52;42.15;;;8.57;;
66384;SDS011;53426;55.872;37.462;2023-05-10T04:31:18;22.10;;;7.90;;
66384;SDS011;53426;55.872;37.462;2023-05-10T04:33:45;17.00;;;6.53;;
66384;SDS011;53426;55.872;37.462;2023-05-10T04:36:11;14.32;;;6.10;;
66384;SDS011;53426;55.872;37.462;2023-05-10T04:38:52;19.20;;;6.65;;
66384;SDS011;53426;55.872;37.462;2023-05-10T04:41:18;13.05;;;6.38;;
66384;SDS011;53426;55.872;37.462;2023-05-10T04:43:44;19.33;;;7.07;;
66384;SDS011;53426;55.872;37.462;2023-05-10T04:46:13;16.10;;;6.43;;
66384;SDS011;53426;55.872;37.462;2023-05-10T04:48:39;10.75;;;5.65;;
66384;SDS011;53426;55.872;37.462;2023-05-10T04:51:05;14.63;;;6.25;;
66384;SDS011;53426;55.872;37.462;2023-05-10T04:53:32;11.65;;;6.18;;
66384;SDS011;53426;55.872;37.462;2023-05-10T04:55:57;10.60;;;6.07;;
66384;SDS011;53426;55.872;37.462;2023-05-10T04:58:23;11.38;;;5.68;;
66384;SDS011;53426;55.872;37.462;2023-05-10T05:00:49;13.38;;;5.60;;
66384;SDS011;53426;55.872;37.462;2023-05-10T05:03:15;19.42;;;5.72;;
66384;SDS011;53426;55.872;37.462;2023-05-10T05:05:45;14.13;;;5.68;;
66384;SDS011;53426;55.872;37.462;2023-05-10T05:08:11;14.95;;;5.70;;
66384;SDS011;53426;55.872;37.462;2023-05-10T05:10:38;18.25;;;6.32;;
66384;SDS011;53426;55.872;37.462;2023-05-10T05:13:03;16.65;;;5.32;;
66384;SDS011;53426;55.872;37.462;2023-05-10T05:15:29;19.05;;;5.25;;
66384;SDS011;53426;55.872;37.462;2023-05-10T05:17:56;9.82;;;4.35;;
66384;SDS011;53426;55.872;37.462;2023-05-10T05:20:21;7.25;;;4.53;;
66384;SDS011;53426;55.872;37.462;2023-05-10T05:22:47;7.75;;;4.07;;
66384;SDS011;53426;55.872;37.462;2023-05-10T05:25:13;9.80;;;4.78;;
66384;SDS011;53426;55.872;37.462;2023-05-10T05:27:40;8.00;;;4.00;;
66384;SDS011;53426;55.872;37.462;2023-05-10T05:30:07;17.40;;;4.47;;
66384;SDS011;53426;55.872;37.462;2023-05-10T05:32:33;6.88;;;4.10;;
66384;SDS011;53426;55.872;37.462;2023-05-10T05:34:59;17.30;;;4.28;;
66384;SDS011;53426;55.872;37.462;2023-05-10T05:37:25;12.07;;;4.07;;
66384;SDS011;53426;55.872;37.462;2023-05-10T05:39:53;9.63;;;3.53;;
66384;SDS011;53426;55.872;37.462;2023-05-10T05:42:20;15.60;;;3.55;;
66384;SDS011;53426;55.872;37.462;2023-05-10T05:44:46;10.10;;;3.97;;
66384;SDS011;53426;55.872;37.462;2023-05-10T05:47:12;18.40;;;4.07;;
66384;SDS011;53426;55.872;37.462;2023-05-10T05:49:38;19.40;;;4.00;;
66384;SDS011;53426;55.872;37.462;2023-05-10T05:52:07;15.57;;;4.00;;
66384;SDS011;53426;55.872;37.462;2023-05-10T05:54:33;6.88;;;3.47;;
66384;SDS011;53426;55.872;37.462;2023-05-10T05:57:00;10.63;;;4.13;;
66384;SDS011;53426;55.872;37.462;2023-05-10T05:59:36;7.78;;;2.90;;
66384;SDS011;53426;55.872;37.462;2023-05-10T06:02:02;4.35;;;3.05;;
66384;SDS011;53426;55.872;37.462;2023-05-10T06:04:27;10.07;;;3.55;;
66384;SDS011;53426;55.872;37.462;2023-05-10T06:06:53;10.75;;;3.70;;
66384;SDS011;53426;55.872;37.462;2023-05-10T06:09:19;6.85;;;3.65;;
66384;SDS011;53426;55.872;37.462;2023-05-10T06:11:45;11.23;;;3.50;;
66384;SDS011;53426;55.872;37.462;2023-05-10T06:14:11;8.10;;;3.60;;
66384;SDS011;53426;55.872;37.462;2023-05-10T06:16:38;8.70;;;3.50;;
66384;SDS011;53426;55.872;37.462;2023-05-10T06:19:04;5.55;;;3.38;;
66384;SDS011;53426;55.872;37.462;2023-05-10T06:21:29;7.93;;;3.17;;
66384;SDS011;53426;55.872;37.462;2023-05-10T06:23:56;10.85;;;3.58;;
66384;SDS011;53426;55.872;37.462;2023-05-10T06:26:22;4.00;;;2.95;;
66384;SDS011;53426;55.872;37.462;2023-05-10T06:28:48;3.20;;;2.90;;
66384;SDS011;53426;55.872;37.462;2023-05-10T06:31:14;6.47;;;3.05;;
66384;SDS011;53426;55.872;37.462;2023-05-10T06:33:43;6.65;;;3.30;;
66384;SDS011;53426;55.872;37.462;2023-05-10T06:36:11;5.05;;;3.30;;
66384;SDS011;53426;55.872;37.462;2023-05-10T06:38:38;4.18;;;3.63;;
66384;SDS011;53426;55.872;37.462;2023-05-10T06:41:05;4.63;;;3.28;;
66384;SDS011;53426;55.872;37.462;2023-05-10T06:43:31;3.95;;;3.05;;
66384;SDS011;53426;55.872;37.462;2023-05-10T06:45:57;8.25;;;3.72;;
66384;SDS011;53426;55.872;37.462;2023-05-10T06:48:23;10.13;;;4.40;;
66384;SDS011;53426;55.872;37.462;2023-05-10T06:50:49;7.70;;;4.10;;
66384;SDS011;53426;55.872;37.462;2023-05-10T06:53:14;7.50;;;3.80;;
66384;SDS011;53426;55.872;37.462;2023-05-10T06:55:40;12.07;;;3.47;;
66384;SDS011;53426;55.872;37.462;2023-05-10T06:58:06;5.68;;;3.22;;
66384;SDS011;53426;55.872;37.462;2023-05-10T07:00:32;9.10;;;3.40;;
66384;SDS011;53426;55.872;37.462;2023-05-10T07:02:58;5.63;;;3.25;;
66384;SDS011;53426;55.872;37.462;2023-05-10T07:05:24;7.28;;;3.17;;
66384;SDS011;53426;55.872;37.462;2023-05-10T07:07:50;4.00;;;2.95;;
66384;SDS011;53426;55.872;37.462;2023-05-10T07:10:19;4.53;;;3.30;;
66384;SDS011;53426;55.872;37.462;2023-05-10T07:12:45;3.75;;;3.20;;
66384;SDS011;53426;55.872;37.462;2023-05-10T07:15:11;7.88;;;3.33;;
66384;SDS011;53426;55.872;37.462;2023-05-10T07:17:37;5.45;;;3.00;;
66384;SDS011;53426;55.872;37.462;2023-05-10T07:23:46;7.07;;;3.10;;
66384;SDS011;53426;55.872;37.462;2023-05-10T07:26:12;5.30;;;2.97;;
66384;SDS011;53426;55.872;37.462;2023-05-10T07:31:32;6.93;;;3.08;;
66384;SDS011;53426;55.872;37.462;2023-05-10T07:34:00;7.55;;;2.88;;
66384;SDS011;53426;55.872;37.462;2023-05-10T07:36:27;5.53;;;2.80;;
66384;SDS011;53426;55.872;37.462;2023-05-10T07:38:59;9.55;;;2.60;;
66384;SDS011;53426;55.872;37.462;2023-05-10T07:41:25;3.80;;;2.30;;
66384;SDS011;53426;55.872;37.462;2023-05-10T07:43:51;6.13;;;2.63;;
66384;SDS011;53426;55.872;37.462;2023-05-10T07:46:21;10.98;;;2.47;;
66384;SDS011;53426;55.872;37.462;2023-05-10T07:48:47;4.47;;;2.33;;
66384;SDS011;53426;55.872;37.462;2023-05-10T07:51:16;10.73;;;2.35;;
66384;SDS011;53426;55.872;37.462;2023-05-10T07:53:50;2.85;;;2.38;;
66384;SDS011;53426;55.872;37.462;2023-05-10T07:58:48;5.18;;;2.70;;
66384;SDS011;53426;55.872;37.462;2023-05-10T08:01:14;4.00;;;2.13;;
66384;SDS011;53426;55.872;37.462;2023-05-10T08:03:40;5.47;;;2.30;;
66384;SDS011;53426;55.872;37.462;2023-05-10T08:06:06;4.38;;;2.17;;
66384;SDS011;53426;55.872;37.462;2023-05-10T08:08:32;3.95;;;2.50;;
66384;SDS011;53426;55.872;37.462;2023-05-10T08:10:58;4.13;;;2.20;;
66384;SDS011;53426;55.872;37.462;2023-05-10T08:13:25;8.30;;;2.38;;
66384;SDS011;53426;55.872;37.462;2023-05-10T08:15:51;9.40;;;3.00;;
66384;SDS011;53426;55.872;37.462;2023-05-10T08:18:18;5.43;;;2.60;;
66384;SDS011;53426;55.872;37.462;2023-05-10T08:20:44;6.18;;;2.47;;
66384;SDS011;53426;55.872;37.462;2023-05-10T08:23:12;9.23;;;2.78;;
66384;SDS011;53426;55.872;37.462;2023-05-10T08:25:38;7.90;;;2.45;;
66384;SDS011;53426;55.872;37.462;2023-05-10T08:28:04;8.82;;;3.72;;
66384;SDS011;53426;55.872;37.462;2023-05-10T08:30:30;3.90;;;2.90;;
66384;SDS011;53426;55.872;37.462;2023-05-10T08:32:56;9.60;;;2.65;;
66384;SDS011;53426;55.872;37.462;2023-05-10T08:35:22;5.63;;;2.97;;
66384;SDS011;53426;55.872;37.462;2023-05-10T08:37:48;3.10;;;2.80;;
66384;SDS011;53426;55.872;37.462;2023-05-10T08:40:14;5.30;;;2.20;;
66384;SDS011;53426;55.872;37.462;2023-05-10T08:42:43;2.13;;;1.70;;
66384;SDS011;53426;55.872;37.462;2023-05-10T08:45:16;11.75;;;9.38;;
66384;SDS011;53426;55.872;37.462;2023-05-10T08:47:45;5.60;;;2.50;;
66384;SDS011;53426;55.872;37.462;2023-05-10T08:50:11;7.93;;;2.58;;
66384;SDS011;53426;55.872;37.462;2023-05-10T08:52:39;7.65;;;2.13;;
66384;SDS011;53426;55.872;37.462;2023-05-10T08:55:07;4.32;;;2.92;;
66384;SDS011;53426;55.872;37.462;2023-05-10T08:57:33;3.08;;;1.80;;
66384;SDS011;53426;55.872;37.462;2023-05-10T09:00:00;2.20;;;1.58;;
66384;SDS011;53426;55.872;37.462;2023-05-10T09:05:20;4.40;;;1.90;;
66384;SDS011;53426;55.872;37.462;2023-05-10T09:07:57;7.53;;;1.95;;
66384;SDS011;53426;55.872;37.462;2023-05-10T09:13:17;2.83;;;1.40;;
66384;SDS011;53426;55.872;37.462;2023-05-10T09:19:05;5.70;;;2.05;;
66384;SDS011;53426;55.872;37.462;2023-05-10T09:21:34;4.18;;;1.88;;
66384;SDS011;53426;55.872;37.462;2023-05-10T09:24:04;5.22;;;2.00;;
66384;SDS011;53426;55.872;37.462;2023-05-10T09:26:55;4.55;;;1.98;;
66384;SDS011;53426;55.872;37.462;2023-05-10T09:31:51;2.50;;;1.73;;
66384;SDS011;53426;55.872;37.462;2023-05-10T09:34:28;2.50;;;2.17;;
66384;SDS011;53426;55.872;37.462;2023-05-10T09:36:57;4.30;;;2.00;;
66384;SDS011;53426;55.872;37.462;2023-05-10T09:39:32;6.18;;;2.20;;
66384;SDS011;53426;55.872;37.462;2023-05-10T09:42:04;2.47;;;1.90;;
66384;SDS011;53426;55.872;37.462;2023-05-10T09:44:34;3.22;;;2.17;;
66384;SDS011;53426;55.872;37.462;2023-05-10T09:47:01;2.67;;;2.00;;
66384;SDS011;53426;55.872;37.462;2023-05-10T09:49:28;3.38;;;2.10;;
66384;SDS011;53426;55.872;37.462;2023-05-10T09:52:04;1.83;;;1.73;;
66384;SDS011;53426;55.872;37.462;2023-05-10T09:54:33;6.68;;;2.20;;
66384;SDS011;53426;55.872;37.462;2023-05-10T09:57:00;2.47;;;1.85;;
66384;SDS011;53426;55.872;37.462;2023-05-10T09:59:27;2.67;;;2.03;;
66384;SDS011;53426;55.872;37.462;2023-05-10T10:01:57;3.85;;;2.30;;
66384;SDS011;53426;55.872;37.462;2023-05-10T10:04:25;6.05;;;2.50;;
66384;SDS011;53426;55.872;37.462;2023-05-10T10:07:04;11.02;;;2.50;;
66384;SDS011;53426;55.872;37.462;2023-05-10T10:09:31;4.28;;;1.80;;
66384;SDS011;53426;55.872;37.462;2023-05-10T10:11:59;9.98;;;2.08;;
66384;SDS011;53426;55.872;37.462;2023-05-10T10:14:25;4.22;;;2.13;;
66384;SDS011;53426;55.872;37.462;2023-05-10T10:16:51;4.65;;;2.00;;
66384;SDS011;53426;55.872;37.462;2023-05-10T10:19:18;13.55;;;2.08;;
66384;SDS011;53426;55.872;37.462;2023-05-10T10:21:49;4.45;;;2.05;;
66384;SDS011;53426;55.872;37.462;2023-05-10T10:24:16;4.70;;;2.13;;
66384;SDS011;53426;55.872;37.462;2023-05-10T10:26:42;4.25;;;2.97;;
66384;SDS011;53426;55.872;37.462;2023-05-10T10:29:23;2.53;;;2.20;;
66384;SDS011;53426;55.872;37.462;2023-05-10T10:34:26;4.28;;;2.40;;
66384;SDS011;53426;55.872;37.462;2023-05-10T10:36:57;3.58;;;1.80;;
66384;SDS011;53426;55.872;37.462;2023-05-10T10:39:23;1.90;;;1.80;;
66384;SDS011;53426;55.872;37.462;2023-05-10T10:41:53;2.67;;;2.13;;
66384;SDS011;53426;55.872;37.462;2023-05-10T10:47:36;3.58;;;2.15;;
66384;SDS011;53426;55.872;37.462;2023-05-10T10:50:03;8.98;;;2.00;;
66384;SDS011;53426;55.872;37.462;2023-05-10T10:52:35;8.73;;;2.30;;
66384;SDS011;53426;55.872;37.462;2023-05-10T10:55:04;5.40;;;2.13;;
66384;SDS011;53426;55.872;37.462;2023-05-10T11:00:24;2.45;;;1.70;;
66384;SDS011;53426;55.872;37.462;2023-05-10T11:03:06;2.15;;;1.90;;
66384;SDS011;53426;55.872;37.462;2023-05-10T11:05:35;5.85;;;2.10;;
66384;SDS011;53426;55.872;37.462;2023-05-10T11:08:10;1.92;;;1.83;;
66384;SDS011;53426;55.872;37.462;2023-05-10T11:10:39;4.10;;;2.10;;
66384;SDS011;53426;55.872;37.462;2023-05-10T11:13:21;2.33;;;2.00;;
66384;SDS011;53426;55.872;37.462;2023-05-10T11:15:58;4.90;;;2.08;;
66384;SDS011;53426;55.872;37.462;2023-05-10T11:18:35;1.85;;;1.70;;
66384;SDS011;53426;55.872;37.462;2023-05-10T11:21:02;5.07;;;2.25;;
66384;SDS011;53426;55.872;37.462;2023-05-10T11:23:47;3.60;;;1.90;;
66384;SDS011;53426;55.872;37.462;2023-05-10T11:26:13;2.97;;;1.98;;
66384;SDS011;53426;55.872;37.462;2023-05-10T11:28:46;15.00;;;3.17;;
66384;SDS011;53426;55.872;37.462;2023-05-10T11:31:14;6.88;;;2.97;;
66384;SDS011;53426;55.872;37.462;2023-05-10T11:33:47;7.95;;;2.25;;
66384;SDS011;53426;55.872;37.462;2023-05-10T11:36:19;2.25;;;1.85;;
66384;SDS011;53426;55.872;37.462;2023-05-10T11:38:47;2.88;;;1.98;;
66384;SDS011;53426;55.872;37.462;2023-05-10T11:41:14;5.07;;;2.03;;
66384;SDS011;53426;55.872;37.462;2023-05-10T11:43:43;3.03;;;2.30;;
66384;SDS011;53426;55.872;37.462;2023-05-10T11:46:13;8.82;;;2.28;;
66384;SDS011;53426;55.872;37.462;2023-05-10T11:48:41;2.30;;;1.90;;
66384;SDS011;53426;55.872;37.462;2023-05-10T11:51:08;6.45;;;2.33;;
66384;SDS011;53426;55.872;37.462;2023-05-10T11:53:35;2.38;;;2.10;;
66384;SDS011;53426;55.872;37.462;2023-05-10T11:56:08;2.17;;;1.77;;
66384;SDS011;53426;55.872;37.462;2023-05-10T11:58:36;1.70;;;1.60;;
66384;SDS011;53426;55.872;37.462;2023-05-10T12:01:04;2.75;;;1.80;;
66384;SDS011;53426;55.872;37.462;2023-05-10T12:03:32;1.95;;;1.85;;
66384;SDS011;53426;55.872;37.462;2023-05-10T12:05:58;6.43;;;1.92;;
66384;SDS011;53426;55.872;37.462;2023-05-10T12:08:26;2.08;;;1.73;;
66384;SDS011;53426;55.872;37.462;2023-05-10T12:10:53;6.45;;;2.28;;
66384;SDS011;53426;55.872;37.462;2023-05-10T12:13:29;2.22;;;2.13;;
66384;SDS011;53426;55.872;37.462;2023-05-10T12:16:19;2.30;;;2.10;;
66384;SDS011;53426;55.872;37.462;2023-05-10T12:18:55;2.92;;;2.03;;
66384;SDS011;53426;55.872;37.462;2023-05-10T12:21:22;2.00;;;1.90;;
66384;SDS011;53426;55.872;37.462;2023-05-10T12:23:54;2.20;;;2.00;;
66384;SDS011;53426;55.872;37.462;2023-05-10T12:26:25;4.00;;;1.95;;
66384;SDS011;53426;55.872;37.462;2023-05-10T12:28:53;2.58;;;2.05;;
66384;SDS011;53426;55.872;37.462;2023-05-10T12:31:31;2.53;;;1.63;;
66384;SDS011;53426;55.872;37.462;2023-05-10T12:34:00;2.65;;;2.00;;
66384;SDS011;53426;55.872;37.462;2023-05-10T12:36:27;2.90;;;1.90;;
66384;SDS011;53426;55.872;37.462;2023-05-10T12:38:56;4.13;;;2.25;;
66384;SDS011;53426;55.872;37.462;2023-05-10T12:41:28;2.20;;;2.10;;
66384;SDS011;53426;55.872;37.462;2023-05-10T12:43:55;5.15;;;2.40;;
66384;SDS011;53426;55.872;37.462;2023-05-10T12:46:21;2.42;;;1.80;;
66384;SDS011;53426;55.872;37.462;2023-05-10T12:48:50;3.35;;;2.00;;
66384;SDS011;53426;55.872;37.462;2023-05-10T12:51:20;4.22;;;1.77;;
66384;SDS011;53426;55.872;37.462;2023-05-10T12:53:47;5.13;;;1.92;;
66384;SDS011;53426;55.872;37.462;2023-05-10T12:56:13;4.28;;;2.33;;
66384;SDS011;53426;55.872;37.462;2023-05-10T12:58:40;2.20;;;1.98;;
66384;SDS011;53426;55.872;37.462;2023-05-10T13:01:14;2.42;;;2.22;;
66384;SDS011;53426;55.872;37.462;2023-05-10T13:03:40;7.07;;;2.20;;
66384;SDS011;53426;55.872;37.462;2023-05-10T13:06:11;3.17;;;2.08;;
66384;SDS011;53426;55.872;37.462;2023-05-10T13:09:31;6.93;;;2.03;;
66384;SDS011;53426;55.872;37.462;2023-05-10T13:12:10;2.90;;;2.03;;
66384;SDS011;53426;55.872;37.462;2023-05-10T13:14:43;3.50;;;1.77;;
66384;SDS011;53426;55.872;37.462;2023-05-10T13:17:09;2.08;;;1.92;;
66384;SDS011;53426;55.872;37.462;2023-05-10T13:19:35;5.15;;;1.90;;
66384;SDS011;53426;55.872;37.462;2023-05-10T13:25:00;8.38;;;2.25;;
66384;SDS011;53426;55.872;37.462;2023-05-10T13:27:27;3.05;;;2.40;;
66384;SDS011;53426;55.872;37.462;2023-05-10T13:29:56;2.60;;;2.20;;
66384;SDS011;53426;55.872;37.462;2023-05-10T13:32:25;7.05;;;2.83;;
66384;SDS011;53426;55.872;37.462;2023-05-10T13:34:51;8.20;;;2.45;;
66384;SDS011;53426;55.872;37.462;2023-05-10T13:37:17;3.92;;;2.72;;
66384;SDS011;53426;55.872;37.462;2023-05-10T13:39:43;5.78;;;2.20;;
66384;SDS011;53426;55.872;37.462;2023-05-10T13:42:09;2.38;;;2.17;;
66384;SDS011;53426;55.872;37.462;2023-05-10T13:44:35;5.00;;;2.28;;
66384;SDS011;53426;55.872;37.462;2023-05-10T13:47:01;4.78;;;2.20;;
66384;SDS011;53426;55.872;37.462;2023-05-10T13:49:27;7.03;;;2.58;;
66384;SDS011;53426;55.872;37.462;2023-05-10T13:51:53;9.32;;;2.30;;
66384;SDS011;53426;55.872;37.462;2023-05-10T13:54:19;8.50;;;2.08;;
66384;SDS011;53426;55.872;37.462;2023-05-10T13:56:45;4.43;;;2.30;;
66384;SDS011;53426;55.872;37.462;2023-05-10T13:59:14;2.17;;;1.98;;
66384;SDS011;53426;55.872;37.462;2023-05-10T14:01:40;7.80;;;3.15;;
66384;SDS011;53426;55.872;37.462;2023-05-10T14:04:08;6.07;;;2.95;;
66384;SDS011;53426;55.872;37.462;2023-05-10T14:06:36;2.35;;;2.15;;
66384;SDS011;53426;55.872;37.462;2023-05-10T14:09:03;8.65;;;2.45;;
66384;SDS011;53426;55.872;37.462;2023-05-10T14:11:29;8.15;;;2.55;;
66384;SDS011;53426;55.872;37.462;2023-05-10T14:13:56;4.05;;;1.98;;
66384;SDS011;53426;55.872;37.462;2023-05-10T14:16:22;2.10;;;1.95;;
66384;SDS011;53426;55.872;37.462;2023-05-10T14:18:48;4.90;;;3.25;;
66384;SDS011;53426;55.872;37.462;2023-05-10T14:21:14;7.95;;;2.55;;
66384;SDS011;53426;55.872;37.462;2023-05-10T14:23:40;2.58;;;2.30;;
66384;SDS011;53426;55.872;37.462;2023-05-10T14:26:06;5.13;;;2.45;;
66384;SDS011;53426;55.872;37.462;2023-05-10T14:28:33;2.72;;;2.08;;
66384;SDS011;53426;55.872;37.462;2023-05-10T14:30:59;10.80;;;2.22;;
66384;SDS011;53426;55.872;37.462;2023-05-10T14:33:28;7.50;;;2.20;;
66384;SDS011;53426;55.872;37.462;2023-05-10T14:35:56;5.10;;;2.70;;
66384;SDS011;53426;55.872;37.462;2023-05-10T14:38:24;12.98;;;2.80;;
66384;SDS011;53426;55.872;37.462;2023-05-10T14:40:50;5.72;;;2.53;;
66384;SDS011;53426;55.872;37.462;2023-05-10T14:43:16;3.63;;;2.00;;
66384;SDS011;53426;55.872;37.462;2023-05-10T14:45:41;3.75;;;2.40;;
66384;SDS011;53426;55.872;37.462;2023-05-10T14:48:07;2.60;;;2.35;;
66384;SDS011;53426;55.872;37.462;2023-05-10T14:50:36;4.30;;;2.75;;
66384;SDS011;53426;55.872;37.462;2023-05-10T14:53:06;6.30;;;2.53;;
66384;SDS011;53426;55.872;37.462;2023-05-10T14:55:32;2.65;;;2.10;;
66384;SDS011;53426;55.872;37.462;2023-05-10T14:57:58;4.90;;;3.03;;
66384;SDS011;53426;55.872;37.462;2023-05-10T15:00:24;2.63;;;2.42;;
66384;SDS011;53426;55.872;37.462;2023-05-10T15:02:50;4.78;;;2.75;;
66384;SDS011;53426;55.872;37.462;2023-05-10T15:05:16;5.10;;;2.45;;
66384;SDS011;53426;55.872;37.462;2023-05-10T15:07:42;6.22;;;2.17;;
66384;SDS011;53426;55.872;37.462;2023-05-10T15:10:09;2.25;;;2.00;;
66384;SDS011;53426;55.872;37.462;2023-05-10T15:12:39;7.28;;;2.22;;
66384;SDS011;53426;55.872;37.462;2023-05-10T15:15:05;4.28;;;2.38;;
66384;SDS011;53426;55.872;37.462;2023-05-10T15:17:41;4.40;;;2.28;;
66384;SDS011;53426;55.872;37.462;2023-05-10T15:20:26;5.28;;;2.33;;
66384;SDS011;53426;55.872;37.462;2023-05-10T15:25:55;4.30;;;2.60;;
66384;SDS011;53426;55.872;37.462;2023-05-10T15:28:21;4.05;;;2.45;;
66384;SDS011;53426;55.872;37.462;2023-05-10T15:30:47;12.32;;;3.88;;
66384;SDS011;53426;55.872;37.462;2023-05-10T15:33:14;5.85;;;3.40;;
66384;SDS011;53426;55.872;37.462;2023-05-10T15:35:40;4.55;;;2.80;;
66384;SDS011;53426;55.872;37.462;2023-05-10T15:38:06;5.57;;;2.80;;
66384;SDS011;53426;55.872;37.462;2023-05-10T15:40:33;2.78;;;2.55;;
66384;SDS011;53426;55.872;37.462;2023-05-10T15:42:59;3.97;;;2.25;;